Time;durP1;ratioP1;P1;durP2;ratioP2;P2;SDS_P1;SDS_P2;PMS_P1;PMS_P2;Temp;Humidity;BMP_temperature;BMP_pressure;BME280_temperature;BME280_humidity;BME280_pressure;Samples;Min_cycle;Max_cycle;Signal;HPM_P1;HPM_P2
2022/10/11 00:00:35;;;;;;;4.47;0.70;;;7.10;99.90;;;;;;4994285;28;20038;-73
2022/10/11 00:03:02;;;;;;;7.60;0.80;;;7.10;99.90;;;;;;4997533;28;20413;-74
2022/10/11 00:05:29;;;;;;;4.93;0.70;;;7.10;99.90;;;;;;5004437;28;20037;-73
2022/10/11 00:08:06;;;;;;;3.33;0.63;;;7.10;99.90;;;;;;5104458;27;20345;-72
2022/10/11 00:10:44;;;;;;;3.50;0.50;;;7.10;99.90;;;;;;5058720;28;21041;-74
2022/10/11 00:13:21;;;;;;;4.28;0.60;;;7.10;99.90;;;;;;5065107;28;20130;-72
2022/10/11 00:15:57;;;;;;;4.60;0.60;;;7.00;99.90;;;;;;5063263;28;20192;-72
2022/10/11 00:18:34;;;;;;;5.22;0.85;;;7.00;99.90;;;;;;5059269;28;20139;-72
2022/10/11 00:21:12;;;;;;;5.38;0.75;;;7.10;99.90;;;;;;5056314;28;20122;-72
2022/10/11 00:23:49;;;;;;;4.75;0.50;;;7.10;99.90;;;;;;5050775;28;20758;-73
2022/10/11 00:26:25;;;;;;;3.28;0.60;;;7.10;99.90;;;;;;5071064;28;20138;-72
2022/10/11 00:29:02;;;;;;;4.60;0.70;;;7.10;99.90;;;;;;5069428;28;20137;-73
2022/10/11 00:31:39;;;;;;;4.78;1.20;;;7.10;99.90;;;;;;5106144;27;20602;-74
2022/10/11 00:34:16;;;;;;;3.78;0.73;;;7.10;99.90;;;;;;5062475;28;20272;-72
2022/10/11 00:36:53;;;;;;;5.88;0.73;;;7.10;99.90;;;;;;5076111;27;20480;-74
2022/10/11 00:39:30;;;;;;;5.60;0.65;;;7.10;99.90;;;;;;5137290;27;20189;-73
2022/10/11 00:42:14;;;;;;;3.67;0.40;;;7.10;99.90;;;;;;5069409;28;20151;-74
2022/10/11 00:45:11;;;;;;;4.70;0.68;;;7.10;99.90;;;;;;5049025;28;20394;-74
2022/10/11 00:47:49;;;;;;;2.58;0.35;;;7.10;99.90;;;;;;5098009;27;20344;-72
2022/10/11 00:50:31;;;;;;;5.18;0.80;;;7.10;99.90;;;;;;5105836;27;20470;-72
2022/10/11 00:53:10;;;;;;;5.85;0.50;;;7.00;99.90;;;;;;5069570;28;20393;-71
2022/10/11 00:56:01;;;;;;;5.10;0.60;;;7.10;99.90;;;;;;5093695;27;1227130;-72
2022/10/11 00:58:37;;;;;;;4.45;0.70;;;7.10;99.90;;;;;;5065663;28;20456;-73
2022/10/11 01:01:14;;;;;;;4.68;0.60;;;7.10;99.90;;;;;;5068317;28;20133;-73
2022/10/11 01:03:50;;;;;;;1.75;0.43;;;7.10;99.90;;;;;;5104824;27;20548;-73
2022/10/11 01:06:27;;;;;;;4.80;0.82;;;7.10;99.90;;;;;;5051166;28;20185;-72
2022/10/11 01:09:04;;;;;;;2.90;0.50;;;7.10;99.90;;;;;;5069520;28;20175;-73
2022/10/11 01:11:42;;;;;;;5.13;0.70;;;7.00;99.90;;;;;;5062891;28;20139;-71
2022/10/11 01:14:39;;;;;;;5.03;0.50;;;7.00;99.90;;;;;;5087112;27;20487;-71
2022/10/11 01:17:31;;;;;;;6.45;0.73;;;7.00;99.90;;;;;;5065976;28;20471;-72
2022/10/11 01:20:40;;;;;;;2.83;0.50;;;6.90;99.90;;;;;;5067758;28;20448;-73
2022/10/11 01:23:29;;;;;;;4.82;0.60;;;6.90;99.90;;;;;;5064286;28;20406;-72
2022/10/11 01:26:23;;;;;;;6.95;0.70;;;6.90;99.90;;;;;;5066881;28;20398;-71
2022/10/11 01:29:39;;;;;;;2.03;0.80;;;6.80;99.90;;;;;;5069857;28;20399;-72
2022/10/11 01:32:39;;;;;;;3.28;0.52;;;6.80;99.90;;;;;;5113973;27;20363;-71
2022/10/11 01:35:25;;;;;;;3.28;0.52;;;6.80;99.90;;;;;;5110540;27;20465;-73
2022/10/11 01:38:15;;;;;;;3.75;1.10;;;6.70;99.90;;;;;;5073601;27;20496;-71
2022/10/11 01:40:58;;;;;;;7.45;1.00;;;6.60;99.90;;;;;;5069246;28;20461;-72
2022/10/11 01:43:37;;;;;;;4.32;0.75;;;6.60;99.90;;;;;;5068126;28;20795;-71
2022/10/11 01:46:15;;;;;;;8.23;1.08;;;6.60;99.90;;;;;;5069659;28;20406;-73
2022/10/11 01:48:55;;;;;;;7.32;1.05;;;6.60;99.90;;;;;;5068571;28;20410;-71
2022/10/11 01:51:36;;;;;;;5.10;1.20;;;6.50;99.90;;;;;;5053015;28;20458;-71
2022/10/11 01:54:48;;;;;;;4.72;0.73;;;6.50;99.90;;;;;;5104973;27;20457;-71
2022/10/11 01:57:37;;;;;;;4.20;0.90;;;6.50;99.90;;;;;;5111178;27;20459;-73
2022/10/11 02:00:21;;;;;;;2.70;0.60;;;6.50;99.90;;;;;;5103698;27;20462;-71
2022/10/11 02:03:16;;;;;;;5.20;0.77;;;6.40;99.90;;;;;;5068329;28;20402;-71
2022/10/11 02:06:06;;;;;;;5.68;1.10;;;6.40;99.90;;;;;;5103451;27;20407;-71
2022/10/11 02:08:56;;;;;;;4.38;1.05;;;6.40;99.90;;;;;;5070766;28;20406;-73
2022/10/11 02:11:33;;;;;;;3.67;0.85;;;6.40;99.90;;;;;;5072584;28;20393;-72
2022/10/11 02:14:26;;;;;;;5.55;1.35;;;6.30;99.90;;;;;;5125294;27;20912;-71
2022/10/11 02:17:08;;;;;;;6.60;1.25;;;6.30;99.90;;;;;;5055590;28;20445;-71
2022/10/11 02:19:49;;;;;;;2.85;0.93;;;6.20;99.90;;;;;;5069956;28;20403;-72
2022/10/11 02:22:30;;;;;;;6.72;1.45;;;6.30;99.90;;;;;;5070816;28;20922;-72
2022/10/11 02:25:12;;;;;;;4.47;0.73;;;6.20;99.90;;;;;;5067093;28;20397;-72
2022/10/11 02:27:52;;;;;;;3.42;0.95;;;6.20;99.90;;;;;;5084640;27;20466;-71
2022/10/11 02:30:31;;;;;;;3.63;0.98;;;6.20;99.90;;;;;;5073032;28;20463;-73
2022/10/11 02:33:11;;;;;;;3.88;0.80;;;6.20;99.90;;;;;;5070123;28;20397;-71
2022/10/11 02:35:56;;;;;;;4.93;0.90;;;6.20;99.90;;;;;;5104015;27;20746;-71
2022/10/11 02:38:52;;;;;;;6.32;1.40;;;6.20;99.90;;;;;;5072067;28;20411;-71
2022/10/11 02:41:37;;;;;;;5.18;1.00;;;6.10;99.90;;;;;;5112369;27;20332;-71
2022/10/11 02:44:30;;;;;;;5.00;0.80;;;6.10;99.90;;;;;;5065459;28;20390;-71
2022/10/11 02:47:08;;;;;;;3.55;0.80;;;6.10;99.90;;;;;;5072521;28;20444;-72
2022/10/11 02:49:45;;;;;;;4.15;0.90;;;6.10;99.90;;;;;;5067832;27;20410;-71
2022/10/11 02:52:22;;;;;;;3.47;0.68;;;6.10;99.90;;;;;;5072382;28;20655;-73
2022/10/11 02:54:58;;;;;;;3.63;0.85;;;6.00;99.90;;;;;;5053087;28;20184;-71
2022/10/11 02:57:35;;;;;;;5.32;0.98;;;6.00;99.90;;;;;;5077378;28;20196;-73
2022/10/11 03:00:12;;;;;;;5.90;0.98;;;6.00;99.90;;;;;;5116236;27;20589;-73
2022/10/11 03:02:50;;;;;;;5.40;0.68;;;6.00;99.90;;;;;;5072971;28;20448;-71
2022/10/11 03:05:26;;;;;;;3.80;0.60;;;6.00;99.90;;;;;;5092589;27;20597;-73
2022/10/11 03:08:03;;;;;;;3.67;0.60;;;5.90;99.90;;;;;;5071878;28;20141;-72
2022/10/11 03:10:40;;;;;;;2.28;0.60;;;5.90;99.90;;;;;;5111935;27;20145;-71
2022/10/11 03:13:18;;;;;;;3.20;0.70;;;5.90;99.90;;;;;;5090357;27;20446;-71
2022/10/11 03:15:55;;;;;;;4.90;0.98;;;5.90;99.90;;;;;;5110042;27;20529;-72
2022/10/11 03:18:31;;;;;;;4.05;0.65;;;5.90;99.90;;;;;;5064167;28;20143;-71
2022/10/11 03:21:08;;;;;;;3.83;0.50;;;5.90;99.90;;;;;;5065214;28;20138;-71
2022/10/11 03:23:44;;;;;;;5.10;0.85;;;5.90;99.90;;;;;;5070901;28;20134;-71
2022/10/11 03:26:21;;;;;;;4.53;0.60;;;5.90;99.90;;;;;;5070256;28;20189;-74
2022/10/11 03:28:57;;;;;;;3.75;0.70;;;5.90;99.90;;;;;;5144569;27;20135;-71
2022/10/11 03:31:34;;;;;;;5.05;1.05;;;5.90;99.90;;;;;;5070378;28;20651;-71
2022/10/11 03:34:10;;;;;;;5.03;0.80;;;6.00;99.90;;;;;;5069332;28;20546;-71
2022/10/11 03:36:46;;;;;;;3.38;0.65;;;6.10;99.90;;;;;;5111697;27;1234911;-71
2022/10/11 03:39:24;;;;;;;4.25;0.70;;;6.10;99.90;;;;;;5064865;28;20959;-73
2022/10/11 03:42:00;;;;;;;3.92;0.65;;;6.20;99.90;;;;;;5072760;28;20539;-71
2022/10/11 03:44:37;;;;;;;4.82;0.55;;;6.20;99.90;;;;;;5065784;28;20191;-72
2022/10/11 03:47:14;;;;;;;4.68;0.60;;;6.30;99.90;;;;;;5069253;28;20142;-72
2022/10/11 03:49:52;;;;;;;3.50;0.70;;;6.30;99.90;;;;;;5103044;27;20463;-71
2022/10/11 03:52:28;;;;;;;6.80;0.80;;;6.30;99.90;;;;;;5070860;28;20131;-71
2022/10/11 03:55:06;;;;;;;4.65;0.80;;;6.30;99.90;;;;;;5066466;28;20199;-71
2022/10/11 03:57:43;;;;;;;3.33;0.70;;;6.30;99.90;;;;;;5070640;28;20401;-72
2022/10/11 04:00:20;;;;;;;3.10;0.80;;;6.30;99.90;;;;;;5065782;28;20134;-73
2022/10/11 04:02:57;;;;;;;5.00;0.95;;;6.20;99.90;;;;;;5072258;28;20183;-71
2022/10/11 04:05:35;;;;;;;3.92;0.65;;;6.20;99.90;;;;;;5067479;28;20475;-71
2022/10/11 04:08:19;;;;;;;6.13;0.77;;;6.30;99.90;;;;;;5069312;28;20048;-71
2022/10/11 04:10:56;;;;;;;6.95;1.00;;;6.30;99.90;;;;;;5090200;27;20044;-72
2022/10/11 04:13:33;;;;;;;5.50;1.05;;;6.30;99.90;;;;;;5068677;28;20176;-71
2022/10/11 04:16:09;;;;;;;2.97;0.60;;;6.30;99.90;;;;;;5070368;28;20824;-71
2022/10/11 04:18:46;;;;;;;5.45;0.80;;;6.40;99.90;;;;;;5047726;28;20215;-73
2022/10/11 04:21:22;;;;;;;2.45;0.70;;;6.40;99.90;;;;;;5073283;28;20130;-73
2022/10/11 04:23:59;;;;;;;4.65;0.95;;;6.50;99.90;;;;;;5069586;28;20232;-72
2022/10/11 04:26:36;;;;;;;4.53;0.70;;;6.50;99.90;;;;;;5070447;28;20142;-71
2022/10/11 04:29:24;;;;;;;2.30;0.65;;;6.60;99.90;;;;;;5064511;28;20398;-73
2022/10/11 04:32:01;;;;;;;5.88;1.02;;;6.60;99.90;;;;;;5072654;28;20212;-72
2022/10/11 04:34:37;;;;;;;3.60;0.80;;;6.70;99.90;;;;;;5046947;28;20533;-72
2022/10/11 04:37:14;;;;;;;5.15;0.55;;;6.70;99.90;;;;;;5072382;28;20185;-74
2022/10/11 04:39:50;;;;;;;6.50;0.88;;;6.80;99.90;;;;;;5070625;28;20129;-73
2022/10/11 04:42:27;;;;;;;4.70;1.10;;;6.80;99.90;;;;;;5072585;28;20520;-71
2022/10/11 04:45:04;;;;;;;2.63;0.52;;;6.80;99.90;;;;;;5068200;28;20139;-73
2022/10/11 04:47:42;;;;;;;8.05;1.40;;;6.80;99.90;;;;;;5096904;27;20464;-71
2022/10/11 04:50:18;;;;;;;4.15;0.63;;;6.80;99.90;;;;;;5071587;28;20142;-71
2022/10/11 04:52:55;;;;;;;7.45;2.47;;;6.80;99.90;;;;;;5068854;28;20594;-71
2022/10/11 04:55:32;;;;;;;3.65;2.03;;;6.80;99.90;;;;;;5062827;28;20964;-72
2022/10/11 04:58:08;;;;;;;9.45;3.97;;;6.80;99.90;;;;;;5068596;28;20130;-73
2022/10/11 05:00:45;;;;;;;6.15;3.15;;;6.80;99.90;;;;;;5053366;28;20139;-75
2022/10/11 05:03:23;;;;;;;5.90;1.83;;;6.70;99.90;;;;;;5137716;27;19912;-72
2022/10/11 05:06:00;;;;;;;3.75;1.05;;;6.70;99.90;;;;;;5065352;28;20406;-73
2022/10/11 05:08:37;;;;;;;3.72;0.90;;;6.60;99.90;;;;;;5071246;28;20274;-72
2022/10/11 05:11:14;;;;;;;5.65;0.68;;;6.60;99.90;;;;;;5091053;27;20193;-72
2022/10/11 05:13:51;;;;;;;4.88;1.17;;;6.50;99.90;;;;;;5070126;28;20405;-72
2022/10/11 05:16:28;;;;;;;13.05;7.45;;;6.50;99.90;;;;;;5064672;28;20138;-72
2022/10/11 05:19:04;;;;;;;13.70;6.70;;;6.40;99.90;;;;;;5070681;28;20543;-72
2022/10/11 05:21:41;;;;;;;8.95;3.70;;;6.40;99.90;;;;;;5072063;28;20192;-72
2022/10/11 05:24:16;;;;;;;6.90;2.30;;;6.40;99.90;;;;;;5103200;27;1227023;-71
2022/10/11 05:26:52;;;;;;;6.85;1.70;;;6.50;99.90;;;;;;5069494;28;20401;-73
2022/10/11 05:29:29;;;;;;;7.35;1.17;;;6.40;99.90;;;;;;5069845;27;20150;-73
2022/10/11 05:32:04;;;;;;;3.85;0.82;;;6.40;99.90;;;;;;5085513;27;1217736;-71
2022/10/11 05:34:41;;;;;;;3.45;0.93;;;6.40;99.90;;;;;;5061412;28;20426;-73
2022/10/11 05:37:18;;;;;;;5.90;0.75;;;6.30;99.90;;;;;;5090229;27;20454;-73
2022/10/11 05:39:54;;;;;;;3.20;0.70;;;6.30;99.90;;;;;;5073979;28;20236;-71
2022/10/11 05:42:30;;;;;;;5.82;1.23;;;6.30;99.90;;;;;;5064341;28;20138;-73
2022/10/11 05:45:07;;;;;;;7.85;4.85;;;6.20;99.90;;;;;;5067259;28;20546;-73
2022/10/11 05:47:44;;;;;;;10.80;3.78;;;6.20;99.90;;;;;;5072914;28;20133;-71
2022/10/11 05:50:46;;;;;;;5.22;2.50;;;6.20;99.90;;;;;;5097443;27;20438;-71
2022/10/11 05:53:23;;;;;;;3.80;1.40;;;6.20;99.90;;;;;;5072222;28;20138;-72
2022/10/11 05:56:21;;;;;;;4.22;1.00;;;6.20;99.90;;;;;;5090521;27;20455;-71
2022/10/11 05:58:58;;;;;;;6.22;0.93;;;6.20;99.90;;;;;;5130544;27;20394;-73
2022/10/11 06:01:37;;;;;;;5.40;1.10;;;6.20;99.90;;;;;;5152782;27;20448;-73
2022/10/11 06:04:15;;;;;;;4.72;0.93;;;6.20;99.90;;;;;;5066786;28;20126;-72
2022/10/11 06:06:52;;;;;;;3.15;0.80;;;6.10;99.90;;;;;;5071364;28;20467;-71
2022/10/11 06:09:29;;;;;;;8.10;0.80;;;6.10;99.90;;;;;;5070091;28;20706;-71
2022/10/11 06:12:05;;;;;;;2.95;0.52;;;6.10;99.90;;;;;;5073121;28;20195;-72
2022/10/11 06:14:56;;;;;;;4.85;0.98;;;6.10;99.90;;;;;;5083602;27;20447;-73
2022/10/11 06:17:51;;;;;;;6.40;0.80;;;6.20;99.90;;;;;;5126112;27;20369;-73
2022/10/11 06:20:46;;;;;;;2.85;0.60;;;6.20;99.90;;;;;;5188155;27;20463;-73
2022/10/11 06:23:55;;;;;;;4.25;0.88;;;6.30;99.90;;;;;;5124410;27;20396;-73
2022/10/11 06:26:49;;;;;;;3.47;0.60;;;6.40;99.90;;;;;;5188063;27;20452;-71
2022/10/11 06:29:46;;;;;;;6.53;1.00;;;6.40;99.90;;;;;;5110602;27;20450;-71
2022/10/11 06:32:41;;;;;;;4.50;0.70;;;6.50;99.90;;;;;;5187213;27;20440;-74
2022/10/11 06:35:35;;;;;;;4.75;0.60;;;6.60;99.90;;;;;;5186196;27;20402;-73
2022/10/11 06:38:26;;;;;;;3.65;0.63;;;6.70;99.90;;;;;;5085600;27;20443;-73
2022/10/11 06:41:23;;;;;;;3.20;0.50;;;6.80;99.90;;;;;;5126250;27;20804;-71
2022/10/11 06:44:14;;;;;;;3.45;0.95;;;6.90;99.90;;;;;;5080289;27;20431;-72
2022/10/11 06:47:07;;;;;;;7.22;1.20;;;7.00;99.90;;;;;;5125069;27;20344;-72
2022/10/11 06:49:57;;;;;;;8.73;1.70;;;7.10;99.90;;;;;;5111384;27;20492;-73
2022/10/11 06:52:53;;;;;;;7.57;1.70;;;7.20;99.90;;;;;;5137046;27;20111;-73
2022/10/11 06:56:03;;;;;;;11.20;1.88;;;7.40;99.90;;;;;;5118521;27;20425;-71
2022/10/11 06:58:56;;;;;;;7.03;1.70;;;7.50;99.90;;;;;;5084938;27;20430;-71
2022/10/11 07:01:47;;;;;;;4.72;1.75;;;7.70;99.90;;;;;;5086942;27;20435;-71
2022/10/11 07:04:38;;;;;;;3.00;1.92;;;7.90;99.90;;;;;;5106798;27;20479;-71
2022/10/11 07:07:30;;;;;;;10.98;2.67;;;8.10;99.90;;;;;;5101261;27;20348;-72
2022/10/11 07:10:24;;;;;;;6.80;1.85;;;8.30;99.90;;;;;;5177435;27;20391;-71
2022/10/11 07:13:14;;;;;;;12.55;2.65;;;8.50;99.90;;;;;;5075102;27;20504;-72
2022/10/11 07:16:09;;;;;;;15.55;3.33;;;8.60;99.90;;;;;;5105731;27;20399;-72
2022/10/11 07:19:09;;;;;;;8.98;2.85;;;8.70;99.90;;;;;;5123569;27;21135;-72
2022/10/11 07:22:03;;;;;;;8.15;2.20;;;8.90;99.90;;;;;;5088688;27;20416;-73
2022/10/11 07:25:00;;;;;;;9.90;2.92;;;8.90;99.90;;;;;;5081907;27;20403;-71
2022/10/11 07:27:54;;;;;;;4.57;2.08;;;9.10;99.90;;;;;;5083716;27;21044;-71
2022/10/11 07:30:46;;;;;;;5.15;2.22;;;9.20;99.90;;;;;;5116320;27;20502;-72
2022/10/11 07:33:38;;;;;;;6.25;1.83;;;9.20;99.90;;;;;;5089365;27;20348;-72
2022/10/11 07:36:31;;;;;;;5.63;1.65;;;9.30;99.90;;;;;;5187930;27;20426;-74
2022/10/11 07:39:22;;;;;;;5.40;2.00;;;9.30;99.90;;;;;;5087595;27;20512;-72
2022/10/11 07:42:21;;;;;;;6.93;2.42;;;9.40;99.90;;;;;;5123520;27;20373;-72
2022/10/11 07:45:15;;;;;;;4.80;1.98;;;9.50;99.90;;;;;;5082618;27;20407;-72
2022/10/11 07:48:10;;;;;;;4.35;2.00;;;9.60;99.90;;;;;;5090987;27;20403;-74
2022/10/11 07:51:16;;;;;;;5.60;1.85;;;9.60;99.90;;;;;;5106227;27;20410;-72
2022/10/11 07:54:06;;;;;;;4.20;1.67;;;9.70;99.90;;;;;;5082792;27;20545;-73
2022/10/11 07:56:58;;;;;;;7.28;2.70;;;9.80;99.90;;;;;;5126283;27;20349;-72
2022/10/11 07:59:48;;;;;;;4.85;2.00;;;9.90;99.90;;;;;;5084994;27;20483;-72
2022/10/11 08:02:39;;;;;;;7.72;2.38;;;9.90;99.90;;;;;;5126262;27;20333;-74
2022/10/11 08:05:31;;;;;;;3.08;1.50;;;10.00;99.90;;;;;;5083033;27;20439;-72
2022/10/11 08:08:25;;;;;;;5.05;1.98;;;10.10;99.90;;;;;;5145152;27;20333;-73
2022/10/11 08:11:28;;;;;;;3.38;1.85;;;10.20;99.90;;;;;;5085336;27;20486;-72
2022/10/11 08:14:28;;;;;;;4.63;2.10;;;10.30;99.90;;;;;;5104704;27;20615;-74
2022/10/11 08:17:22;;;;;;;3.53;2.47;;;10.40;99.90;;;;;;5187967;27;20399;-73
2022/10/11 08:20:12;;;;;;;2.80;2.28;;;10.50;99.90;;;;;;5085488;27;20500;-72
2022/10/11 08:23:08;;;;;;;4.90;2.10;;;10.70;99.90;;;;;;5107430;27;20360;-72
2022/10/11 08:26:08;;;;;;;3.90;1.80;;;10.80;99.90;;;;;;5126393;27;20523;-73
2022/10/11 08:29:03;;;;;;;8.52;2.25;;;10.90;99.90;;;;;;5086540;27;20735;-72
2022/10/11 08:31:54;;;;;;;11.18;2.30;;;11.00;99.90;;;;;;5114125;27;20510;-73
2022/10/11 08:35:00;;;;;;;4.72;2.10;;;11.10;99.90;;;;;;5120533;27;20399;-73
2022/10/11 08:37:53;;;;;;;6.03;2.20;;;11.20;99.90;;;;;;5125981;27;20116;-73
2022/10/11 08:40:58;;;;;;;4.65;1.80;;;11.20;99.90;;;;;;5085184;27;20395;-74
2022/10/11 08:44:26;;;;;;;4.47;1.92;;;11.40;99.90;;;;;;5082906;27;20953;-72
2022/10/11 08:47:43;;;;;;;6.22;1.48;;;11.40;99.90;;;;;;5084943;27;20395;-72
2022/10/11 08:50:38;;;;;;;6.90;1.83;;;11.60;99.90;;;;;;5085659;27;20419;-73
2022/10/11 08:53:54;;;;;;;7.57;1.67;;;11.70;99.90;;;;;;5125285;27;20107;-73
2022/10/11 08:56:45;;;;;;;5.55;1.45;;;11.70;99.90;;;;;;5085660;27;20980;-72
2022/10/11 08:59:56;;;;;;;5.28;1.35;;;11.80;99.90;;;;;;5087831;27;20494;-72
2022/10/11 09:02:56;;;;;;;7.53;1.20;;;11.90;99.90;;;;;;5074763;28;20561;-72
2022/10/11 09:05:41;;;;;;;5.43;0.85;;;12.10;99.90;;;;;;5069708;28;20395;-73
2022/10/11 09:08:52;;;;;;;4.72;0.70;;;12.20;99.90;;;;;;5069484;28;20402;-73
2022/10/11 09:11:44;;;;;;;6.60;0.90;;;12.30;99.90;;;;;;5065979;28;20398;-72
2022/10/11 09:15:13;;;;;;;5.32;0.85;;;12.30;99.90;;;;;;5069559;28;20406;-73
2022/10/11 09:17:48;;;;;;;7.25;1.35;;;12.40;99.90;;;;;;5040940;28;20049;-73
2022/10/11 09:20:14;;;;;;;8.65;2.47;;;12.50;99.90;;;;;;5032389;28;20443;-73
2022/10/11 09:23:13;;;;;;;5.72;1.67;;;12.70;99.90;;;;;;5049123;28;20044;-73
2022/10/11 09:25:54;;;;;;;4.38;1.33;;;12.80;99.90;;;;;;5037225;28;20045;-73
2022/10/11 09:28:40;;;;;;;4.57;1.00;;;12.80;99.90;;;;;;5048429;28;20040;-73
2022/10/11 09:31:09;;;;;;;5.28;1.10;;;12.90;99.90;;;;;;5029441;28;20353;-72
2022/10/11 09:33:42;;;;;;;4.15;0.82;;;13.00;99.90;;;;;;5033734;28;20037;-73
2022/10/11 09:36:21;;;;;;;;;;;13.10;99.90;;;;;;5030888;28;20043;-72
2022/10/11 09:38:57;;;;;;;3.97;0.75;;;13.20;99.90;;;;;;5050968;28;19913;-72
2022/10/11 09:41:34;;;;;;;5.88;0.90;;;13.30;99.90;;;;;;5047519;28;20480;-73
2022/10/11 09:44:00;;;;;;;5.20;1.10;;;13.40;99.90;;;;;;5044731;28;20037;-72
2022/10/11 09:46:56;;;;;;;5.70;1.00;;;13.50;99.90;;;;;;5051250;28;20045;-72
2022/10/11 09:49:53;;;;;;;5.13;0.95;;;13.50;99.90;;;;;;5022858;28;20052;-72
2022/10/11 09:52:22;;;;;;;7.10;0.90;;;13.70;99.90;;;;;;5049008;28;20037;-72
2022/10/11 09:54:50;;;;;;;5.00;0.60;;;13.90;99.90;;;;;;5029495;28;20041;-73
2022/10/11 09:57:24;;;;;;;10.60;1.88;;;14.20;99.90;;;;;;5033633;28;20045;-71
2022/10/11 10:00:09;;;;;;;5.07;1.45;;;14.50;99.90;;;;;;5039521;28;20043;-76
2022/10/11 10:02:43;;;;;;;7.97;1.52;;;14.90;99.90;;;;;;5038899;28;20037;-74
2022/10/11 10:05:09;;;;;;;8.18;1.00;;;15.20;99.90;;;;;;5024705;28;20052;-74
2022/10/11 10:07:56;;;;;;;5.00;1.38;;;15.50;99.90;;;;;;5035313;28;20021;-74
2022/10/11 10:10:31;;;;;;;4.75;0.80;;;15.90;99.90;;;;;;5042578;28;20025;-75
2022/10/11 10:13:00;;;;;;;5.53;1.33;;;16.20;99.90;;;;;;5036638;28;20049;-75
2022/10/11 10:15:30;;;;;;;5.43;0.80;;;16.50;99.90;;;;;;5024048;28;20029;-73
2022/10/11 10:17:57;;;;;;;3.83;0.60;;;16.80;99.90;;;;;;5044557;28;20036;-73
2022/10/11 10:20:32;;;;;;;4.40;0.90;;;17.10;99.90;;;;;;5043598;28;20031;-73
2022/10/11 10:23:18;;;;;;;5.75;1.00;;;17.40;99.90;;;;;;5040042;28;20029;-73
2022/10/11 10:25:49;;;;;;;5.70;1.00;;;17.80;99.90;;;;;;5009852;28;20041;-73
2022/10/11 10:28:22;;;;;;;5.20;0.75;;;18.10;99.90;;;;;;5023144;28;20037;-74
2022/10/11 10:30:57;;;;;;;4.82;0.70;;;18.50;99.90;;;;;;5035057;28;20041;-73
2022/10/11 10:33:28;;;;;;;5.43;1.00;;;18.70;99.90;;;;;;5032863;28;20052;-73
2022/10/11 10:36:17;;;;;;;5.05;0.80;;;19.00;99.90;;;;;;5027301;28;20037;-74
2022/10/11 10:38:57;;;;;;;8.45;0.95;;;19.30;99.90;;;;;;5044917;28;20512;-75
2022/10/11 10:41:25;;;;;;;5.32;0.80;;;19.50;99.90;;;;;;5014685;28;20037;-74
2022/10/11 10:43:54;;;;;;;7.13;1.42;;;19.70;99.90;;;;;;5032389;28;20041;-74
2022/10/11 10:46:24;;;;;;;3.58;0.65;;;19.90;99.90;;;;;;5016082;28;20045;-74
2022/10/11 10:49:02;;;;;;;5.00;0.70;;;20.20;99.90;;;;;;5033885;28;20029;-74
2022/10/11 10:51:34;;;;;;;4.75;0.77;;;20.60;99.90;;;;;;5033077;28;20026;-75
2022/10/11 10:54:23;;;;;;;6.18;1.02;;;20.80;99.90;;;;;;5029008;28;20597;-77
2022/10/11 10:57:01;;;;;;;5.47;1.00;;;20.90;99.90;;;;;;5029411;28;20026;-75
2022/10/11 10:59:36;;;;;;;3.42;0.63;;;21.00;99.90;;;;;;5029523;28;20037;-76
2022/10/11 11:02:14;;;;;;;5.72;0.98;;;21.20;99.90;;;;;;5011087;28;20409;-75
2022/10/11 11:04:48;;;;;;;6.88;0.88;;;21.30;99.90;;;;;;5042447;28;20030;-76
2022/10/11 11:07:38;;;;;;;4.05;0.80;;;21.20;99.90;;;;;;5033119;28;20033;-76
2022/10/11 11:10:11;;;;;;;6.53;1.13;;;20.60;99.90;;;;;;5034382;28;20030;-75
2022/10/11 11:12:52;;;;;;;4.03;0.93;;;19.90;99.90;;;;;;5034848;28;20064;-76
2022/10/11 11:15:41;;;;;;;5.32;0.88;;;19.30;99.90;;;;;;5029154;28;20033;-74
2022/10/11 11:18:27;;;;;;;4.72;1.15;;;18.90;99.90;;;;;;5029406;28;20044;-75
2022/10/11 11:21:09;;;;;;;5.45;0.95;;;18.50;99.90;;;;;;5032094;28;20716;-74
2022/10/11 11:24:06;;;;;;;5.15;1.00;;;18.10;99.90;;;;;;5031110;28;20376;-75
2022/10/11 11:26:45;;;;;;;3.58;0.57;;;17.80;99.90;;;;;;5034507;28;20491;-75
2022/10/11 11:29:27;;;;;;;5.28;1.00;;;17.60;99.90;;;;;;5013765;28;21015;-74
2022/10/11 11:32:09;;;;;;;5.22;0.80;;;17.50;99.90;;;;;;5013996;28;20025;-75
2022/10/11 11:34:36;;;;;;;6.97;1.00;;;17.50;99.90;;;;;;5029518;28;20040;-75
2022/10/11 11:37:13;;;;;;;4.30;0.70;;;17.50;99.90;;;;;;5036093;28;20401;-75
2022/10/11 11:39:50;;;;;;;8.63;1.23;;;17.50;99.90;;;;;;5035838;28;20044;-74
2022/10/11 11:42:34;;;;;;;6.97;0.88;;;17.70;99.90;;;;;;5035205;28;20476;-75
2022/10/11 11:45:11;;;;;;;5.03;0.80;;;17.70;99.90;;;;;;5031913;28;20044;-75
2022/10/11 11:47:42;;;;;;;6.20;0.90;;;17.80;99.90;;;;;;5031859;28;20025;-75
2022/10/11 11:50:14;;;;;;;6.55;1.25;;;18.30;99.90;;;;;;5036714;28;20501;-75
2022/10/11 11:52:43;;;;;;;5.35;0.85;;;19.20;99.90;;;;;;5030059;28;20140;-76
2022/10/11 11:55:26;;;;;;;3.30;0.60;;;20.20;98.90;;;;;;5032085;28;20032;-75
2022/10/11 11:58:09;;;;;;;5.47;0.90;;;21.10;97.30;;;;;;5037135;28;20029;-75
2022/10/11 12:01:07;;;;;;;5.90;0.60;;;22.00;96.30;;;;;;5035065;28;20052;-76
2022/10/11 12:03:43;;;;;;;4.47;0.90;;;22.90;95.10;;;;;;4999094;28;20056;-76
2022/10/11 12:06:15;;;;;;;6.70;1.15;;;23.30;94.00;;;;;;5016191;28;20042;-75
2022/10/11 12:08:44;;;;;;;3.65;1.00;;;23.40;93.30;;;;;;5032077;28;20040;-76
2022/10/11 12:11:26;;;;;;;5.00;1.02;;;23.70;92.50;;;;;;5034688;28;20037;-76
2022/10/11 12:13:53;;;;;;;4.68;0.80;;;24.00;90.50;;;;;;5026829;28;20049;-76
2022/10/11 12:16:21;;;;;;;5.80;1.15;;;23.60;90.10;;;;;;5013475;28;20037;-76
2022/10/11 12:18:47;;;;;;;6.25;1.20;;;22.80;88.70;;;;;;5031496;28;20040;-76
2022/10/11 12:21:23;;;;;;;4.45;0.70;;;22.00;88.90;;;;;;5030363;28;20041;-75
2022/10/11 12:23:52;;;;;;;5.75;0.70;;;21.40;90.20;;;;;;5021148;28;20040;-75
2022/10/11 12:26:28;;;;;;;5.38;0.75;;;21.20;90.50;;;;;;5021682;28;20036;-75
2022/10/11 12:29:17;;;;;;;5.10;0.90;;;20.90;90.70;;;;;;5020555;28;20044;-76
2022/10/11 12:32:10;;;;;;;5.00;0.77;;;20.50;90.90;;;;;;5025219;28;20029;-75
2022/10/11 12:34:42;;;;;;;4.38;1.10;;;20.00;91.20;;;;;;5015570;28;20087;-75
2022/10/11 12:37:18;;;;;;;4.53;1.02;;;19.50;91.60;;;;;;5019963;28;20117;-78
2022/10/11 12:39:58;;;;;;;3.75;0.73;;;19.20;91.70;;;;;;5023109;28;20681;-80
2022/10/11 12:42:31;;;;;;;4.55;1.20;;;18.80;92.00;;;;;;5018105;28;20581;-75
2022/10/11 12:45:12;;;;;;;3.15;0.82;;;18.50;92.30;;;;;;5019690;28;20040;-75
2022/10/11 12:48:16;;;;;;;5.57;0.70;;;18.20;92.70;;;;;;5022499;28;20042;-74
2022/10/11 12:51:05;;;;;;;4.80;0.98;;;18.10;93.00;;;;;;5006106;28;20040;-74
2022/10/11 12:53:52;;;;;;;15.90;8.40;;;18.00;93.40;;;;;;4993016;28;20046;-74
2022/10/11 12:56:47;;;;;;;13.13;4.75;;;18.80;93.60;;;;;;5041229;28;20453;-74
2022/10/11 12:59:18;;;;;;;24.80;17.02;;;19.20;93.60;;;;;;5022077;28;20037;-75
2022/10/11 13:01:53;;;;;;;12.80;7.07;;;19.20;93.30;;;;;;5024229;28;20381;-75
2022/10/11 13:04:31;;;;;;;6.85;2.55;;;19.00;93.10;;;;;;5019292;28;20113;-75
2022/10/11 13:07:03;;;;;;;2.58;0.70;;;18.90;92.90;;;;;;5017912;28;20044;-73
2022/10/11 13:09:30;;;;;;;3.17;0.77;;;18.80;93.10;;;;;;5015195;28;20034;-75
2022/10/11 13:12:08;;;;;;;4.15;0.90;;;18.70;93.30;;;;;;5022945;28;20044;-75
2022/10/11 13:14:37;;;;;;;3.58;0.60;;;18.70;93.20;;;;;;5022356;28;20049;-75
2022/10/11 13:17:32;;;;;;;6.28;1.20;;;18.60;93.10;;;;;;5026971;28;20029;-75
2022/10/11 13:20:01;;;;;;;6.68;2.22;;;18.60;92.70;;;;;;5021308;28;20481;-74
2022/10/11 13:22:27;;;;;;;6.60;2.50;;;18.50;92.70;;;;;;5019281;28;20499;-74
2022/10/11 13:24:56;;;;;;;4.50;1.17;;;18.50;92.90;;;;;;5021360;28;20037;-75
2022/10/11 13:27:25;;;;;;;4.00;0.68;;;18.50;92.50;;;;;;5021551;28;20034;-75
2022/10/11 13:29:58;;;;;;;8.15;0.90;;;18.40;92.60;;;;;;5024445;28;20388;-75
2022/10/11 13:32:26;;;;;;;;;;;18.40;92.70;;;;;;5026868;28;20036;-74
2022/10/11 13:34:55;;;;;;;4.93;0.82;;;18.30;92.50;;;;;;5022804;28;19921;-74
2022/10/11 13:37:25;;;;;;;3.58;0.57;;;18.20;92.50;;;;;;5021293;28;20398;-73
2022/10/11 13:39:53;;;;;;;2.88;0.75;;;18.00;92.90;;;;;;5024886;28;20034;-74
2022/10/11 13:42:30;;;;;;;6.03;0.60;;;17.90;92.90;;;;;;5019007;28;20113;-74
2022/10/11 13:44:58;;;;;;;5.40;0.80;;;17.90;93.00;;;;;;5026282;28;20416;-73
2022/10/11 13:47:30;;;;;;;4.72;0.60;;;17.90;93.00;;;;;;5026745;28;20037;-75
2022/10/11 13:50:22;;;;;;;4.78;0.60;;;17.90;92.90;;;;;;5034024;28;20033;-75
2022/10/11 13:52:54;;;;;;;5.07;0.90;;;17.80;92.90;;;;;;5024790;28;20041;-75
2022/10/11 13:55:33;;;;;;;2.67;0.47;;;17.70;92.90;;;;;;5026366;28;20405;-75
2022/10/11 13:58:02;;;;;;;8.85;0.47;;;17.70;93.20;;;;;;5029953;28;20029;-72
2022/10/11 14:00:50;;;;;;;3.72;0.50;;;17.60;93.00;;;;;;5029050;28;20384;-73
2022/10/11 14:03:19;;;;;;;4.45;0.50;;;17.50;92.90;;;;;;5030775;28;20041;-72
2022/10/11 14:05:55;;;;;;;4.85;0.80;;;17.40;93.50;;;;;;5033534;28;20041;-73
2022/10/11 14:08:34;;;;;;;5.10;0.85;;;17.30;93.40;;;;;;5035373;28;20052;-73
2022/10/11 14:11:00;;;;;;;3.67;0.70;;;17.20;93.60;;;;;;5032786;28;20144;-75